createdAt,value
2022-08-09T00:00:29.138Z,1025.96
2022-08-09T00:01:39.915Z,1025.94
2022-08-09T00:02:30.404Z,1025.94
2022-08-09T00:04:00.806Z,1025.93
2022-08-09T00:04:35.413Z,1025.92
2022-08-09T00:06:17.601Z,1026.00
2022-08-09T00:06:30.080Z,1025.97
2022-08-09T00:07:29.681Z,1025.99
2022-08-09T00:08:32.236Z,1025.85
2022-08-09T00:09:29.027Z,1025.93
2022-08-09T00:10:28.998Z,1025.89
2022-08-09T00:11:58.670Z,1025.90
2022-08-09T00:12:29.977Z,1025.88
2022-08-09T00:13:31.525Z,1025.87
2022-08-09T00:14:36.364Z,1025.92
2022-08-09T00:15:57.988Z,1025.94
2022-08-09T00:16:36.649Z,1025.94
2022-08-09T00:18:07.576Z,1025.96
2022-08-09T00:18:29.977Z,1025.90
2022-08-09T00:19:28.963Z,1025.95
2022-08-09T00:20:31.485Z,1026.03
2022-08-09T00:21:28.865Z,1025.97
2022-08-09T00:22:35.130Z,1025.99
2022-08-09T00:23:54.647Z,1025.95
2022-08-09T00:24:29.825Z,1026.03
2022-08-09T00:25:32.922Z,1026.03
2022-08-09T00:26:29.977Z,1025.97
2022-08-09T00:27:28.784Z,1026.04
2022-08-09T00:28:29.767Z,1026.06
2022-08-09T00:30:09.989Z,1026.04
2022-08-09T00:30:29.752Z,1025.99
2022-08-09T00:31:57.328Z,1026.11
2022-08-09T00:32:29.715Z,1026.07
2022-08-09T00:33:32.468Z,1026.06
2022-08-09T00:34:32.544Z,1026.06
2022-08-09T00:35:29.657Z,1026.14
2022-08-09T00:36:30.812Z,1026.15
2022-08-09T00:37:32.725Z,1026.10
2022-08-09T00:38:28.637Z,1026.13
2022-08-09T00:40:12.293Z,1026.16
2022-08-09T00:40:31.147Z,1026.10
2022-08-09T00:44:09.935Z,1026.10
2022-08-09T00:44:10.260Z,1026.05
2022-08-09T00:44:19.481Z,1026.05
2022-08-09T00:44:30.043Z,1026.11
2022-08-09T00:45:28.599Z,1026.11
2022-08-09T00:46:56.085Z,1026.10
2022-08-09T00:47:29.536Z,1026.10
2022-08-09T00:48:29.537Z,1026.11
2022-08-09T00:49:28.564Z,1026.08
2022-08-09T00:50:28.600Z,1026.08
2022-08-09T00:51:33.823Z,1026.09
2022-08-09T00:52:30.450Z,1026.03
2022-08-09T00:53:28.448Z,1026.08
2022-08-09T00:54:31.455Z,1026.05
2022-08-09T00:56:03.179Z,1026.11
2022-08-09T00:56:29.499Z,1026.08
2022-08-09T00:57:34.842Z,1026.11
2022-08-09T00:58:30.545Z,1026.07
2022-08-09T00:59:31.652Z,1026.09
2022-08-09T01:00:29.353Z,1026.05
2022-08-09T01:01:30.206Z,1026.05
2022-08-09T01:02:28.381Z,1026.05
2022-08-09T01:03:28.479Z,1026.02
2022-08-09T01:04:28.299Z,1025.99
2022-08-09T01:05:52.001Z,1026.08
2022-08-09T01:06:35.431Z,1026.07
2022-08-09T01:07:37.910Z,1026.04
2022-08-09T01:08:29.239Z,1026.05
2022-08-09T01:09:36.444Z,1026.05
2022-08-09T01:10:29.200Z,1026.08
2022-08-09T01:11:28.195Z,1026.11
2022-08-09T01:12:28.193Z,1026.05
2022-08-09T01:13:31.276Z,1026.14
2022-08-09T01:14:29.169Z,1026.11
2022-08-09T01:15:28.139Z,1026.05
2022-08-09T01:16:28.146Z,1026.08
2022-08-09T01:17:30.300Z,1026.05
2022-08-09T01:18:30.608Z,1026.05
2022-08-09T01:19:39.720Z,1026.03
2022-08-09T01:20:29.078Z,1026.11
2022-08-09T01:21:28.046Z,1025.98
2022-08-09T01:22:29.064Z,1025.98
2022-08-09T01:24:03.466Z,1025.97
2022-08-09T01:24:29.043Z,1025.99
2022-08-09T01:25:27.993Z,1026.00
2022-08-09T01:26:28.011Z,1025.96
2022-08-09T01:27:29.237Z,1025.94
2022-08-09T01:28:28.023Z,1025.96
2022-08-09T01:29:28.289Z,1025.99
2022-08-09T01:30:33.619Z,1025.94
2022-08-09T01:32:31.246Z,1025.96
2022-08-09T01:32:33.554Z,1025.98
2022-08-09T01:33:28.932Z,1025.99
2022-08-09T01:34:27.903Z,1026.02
2022-08-09T01:35:37.420Z,1026.00
2022-08-09T01:36:28.866Z,1026.03
2022-08-09T01:38:06.414Z,1026.06
2022-08-09T01:38:28.874Z,1026.04
2022-08-09T01:39:27.849Z,1026.02
2022-08-09T01:40:28.371Z,1025.98
2022-08-09T01:41:27.979Z,1026.01
2022-08-09T01:42:27.770Z,1026.08
2022-08-09T01:43:27.787Z,1026.10
2022-08-09T01:44:28.726Z,1026.03
2022-08-09T01:45:27.772Z,1026.07
2022-08-09T01:46:27.786Z,1026.06
2022-08-09T01:47:27.715Z,1026.11
2022-08-09T01:48:31.425Z,1026.08
2022-08-09T01:49:27.856Z,1026.08
2022-08-09T01:50:29.936Z,1026.08
2022-08-09T01:51:28.670Z,1026.08
2022-08-09T01:52:27.640Z,1026.05
2022-08-09T01:53:29.304Z,1026.08
2022-08-09T01:54:32.545Z,1026.08
2022-08-09T01:55:27.627Z,1026.07
2022-08-09T01:56:27.676Z,1026.06
2022-08-09T01:57:27.651Z,1026.12
2022-08-09T01:58:28.106Z,1026.09
2022-08-09T01:59:32.333Z,1026.11
2022-08-09T02:00:35.939Z,1026.05
2022-08-09T02:01:57.766Z,1026.09
2022-08-09T02:02:31.052Z,1026.05
2022-08-09T02:03:27.493Z,1026.00
2022-08-09T02:04:27.542Z,1026.00
2022-08-09T02:05:35.436Z,1026.08
2022-08-09T02:06:28.475Z,1026.01
2022-08-09T02:08:38.992Z,1026.08
2022-08-09T02:08:39.640Z,1026.09
2022-08-09T02:09:42.565Z,1026.03
2022-08-09T02:10:30.183Z,1026.05
2022-08-09T02:11:42.869Z,1026.08
2022-08-09T02:12:28.456Z,1026.00
2022-08-09T02:13:37.593Z,1026.04
2022-08-09T02:14:28.407Z,1026.01
2022-08-09T02:15:27.402Z,1026.06
2022-08-09T02:16:33.943Z,1025.99
2022-08-09T02:18:01.629Z,1026.06
2022-08-09T02:18:28.300Z,1026.06
2022-08-09T02:19:34.950Z,1026.03
2022-08-09T02:20:33.881Z,1026.09
2022-08-09T02:21:28.256Z,1026.06
2022-08-09T02:22:35.717Z,1026.09
2022-08-09T02:23:28.238Z,1026.11
2022-08-09T02:24:28.343Z,1026.15
2022-08-09T02:25:27.199Z,1026.10
2022-08-09T02:26:27.687Z,1026.20
2022-08-09T02:27:43.059Z,1026.20
2022-08-09T02:28:28.169Z,1026.15
2022-08-09T02:29:27.336Z,1026.17
2022-08-09T02:30:27.145Z,1026.12
2022-08-09T02:31:27.153Z,1026.25
2022-08-09T02:32:27.194Z,1026.24
2022-08-09T02:33:38.128Z,1026.25
2022-08-09T02:34:41.494Z,1026.19
2022-08-09T02:36:01.413Z,1026.17
2022-08-09T02:36:28.071Z,1026.18
2022-08-09T02:37:31.669Z,1026.18
2022-08-09T02:38:28.561Z,1026.17
2022-08-09T02:39:33.682Z,1026.20
2022-08-09T02:40:30.441Z,1026.17
2022-08-09T02:41:27.018Z,1026.16
2022-08-09T02:42:27.003Z,1026.11
2022-08-09T02:43:28.842Z,1026.16
2022-08-09T02:44:30.302Z,1026.19
2022-08-09T02:45:28.808Z,1026.24
2022-08-09T02:46:27.652Z,1026.23
2022-08-09T02:47:26.919Z,1026.23
2022-08-09T02:48:30.853Z,1026.20
2022-08-09T02:49:27.196Z,1026.18
2022-08-09T02:50:27.924Z,1026.21
2022-08-09T02:51:26.889Z,1026.15
2022-08-09T02:52:26.881Z,1026.11
2022-08-09T02:53:26.916Z,1026.17
2022-08-09T02:54:26.836Z,1026.16
2022-08-09T02:55:46.414Z,1026.18
2022-08-09T02:56:28.011Z,1026.18
2022-08-09T02:57:26.911Z,1026.16
2022-08-09T02:58:36.182Z,1026.17
2022-08-09T02:59:36.518Z,1026.13
2022-08-09T03:00:27.796Z,1026.21
2022-08-09T03:01:29.443Z,1026.11
2022-08-09T03:02:27.846Z,1026.22
2022-08-09T03:03:37.295Z,1026.08
2022-08-09T03:04:29.012Z,1026.15
2022-08-09T03:05:26.695Z,1026.15
2022-08-09T03:06:27.273Z,1026.20
2022-08-09T03:07:26.665Z,1026.18
2022-08-09T03:08:27.667Z,1026.11
2022-08-09T03:09:26.634Z,1026.16
2022-08-09T03:10:27.638Z,1026.18
2022-08-09T03:11:29.953Z,1026.16
2022-08-09T03:12:27.627Z,1026.15
2022-08-09T03:13:26.597Z,1026.13
2022-08-09T03:14:28.424Z,1026.16
2022-08-09T03:16:04.118Z,1026.19
2022-08-09T03:16:27.540Z,1026.16
2022-08-09T03:17:27.559Z,1026.13
2022-08-09T03:18:26.540Z,1026.17
2022-08-09T03:19:58.790Z,1026.22
2022-08-09T03:20:29.480Z,1026.20
2022-08-09T03:21:26.487Z,1026.22
2022-08-09T03:22:30.399Z,1026.21
2022-08-09T03:23:26.458Z,1026.20
2022-08-09T03:24:31.534Z,1026.25
2022-08-09T03:25:58.455Z,1026.30
2022-08-09T03:26:31.947Z,1026.28
2022-08-09T03:27:26.386Z,1026.29
2022-08-09T03:28:26.428Z,1026.28
2022-08-09T03:29:26.441Z,1026.22
2022-08-09T03:30:33.349Z,1026.24
2022-08-09T03:31:27.337Z,1026.18
2022-08-09T03:32:26.349Z,1026.23
2022-08-09T03:33:26.305Z,1026.22
2022-08-09T03:34:27.299Z,1026.25
2022-08-09T03:36:11.362Z,1026.24
2022-08-09T03:36:28.149Z,1026.22
2022-08-09T03:37:54.850Z,1026.19
2022-08-09T03:38:29.025Z,1026.20
2022-08-09T03:39:37.494Z,1026.23
2022-08-09T03:40:31.122Z,1026.24
2022-08-09T03:41:30.337Z,1026.26
2022-08-09T03:42:28.946Z,1026.26
2022-08-09T03:43:27.172Z,1026.22
2022-08-09T03:44:27.815Z,1026.24
2022-08-09T03:46:05.159Z,1026.20
2022-08-09T03:46:29.331Z,1026.26
2022-08-09T03:47:26.788Z,1026.26
2022-08-09T03:48:30.549Z,1026.28
2022-08-09T03:49:26.124Z,1026.28
2022-08-09T03:50:27.983Z,1026.28
2022-08-09T03:51:56.910Z,1026.29
2022-08-09T03:52:28.026Z,1026.27
2022-08-09T03:53:32.180Z,1026.28
2022-08-09T03:54:29.743Z,1026.27
2022-08-09T03:55:26.488Z,1026.25
2022-08-09T03:56:26.028Z,1026.29
2022-08-09T03:57:26.046Z,1026.25
2022-08-09T03:58:26.993Z,1026.26
2022-08-09T03:59:27.456Z,1026.20
2022-08-09T04:00:27.007Z,1026.28
2022-08-09T04:01:25.953Z,1026.20
2022-08-09T04:02:26.734Z,1026.21
2022-08-09T04:03:35.448Z,1026.22
2022-08-09T04:04:26.906Z,1026.22
2022-08-09T04:05:28.044Z,1026.23
2022-08-09T04:06:25.894Z,1026.23
2022-08-09T04:07:33.658Z,1026.22
2022-08-09T04:08:29.068Z,1026.25
2022-08-09T04:09:48.355Z,1026.20
2022-08-09T04:10:29.079Z,1026.26
2022-08-09T04:11:25.825Z,1026.26
2022-08-09T04:12:30.895Z,1026.26
2022-08-09T04:13:26.788Z,1026.28
2022-08-09T04:14:53.417Z,1026.28
2022-08-09T04:15:52.043Z,1026.28
2022-08-09T04:16:26.743Z,1026.32
2022-08-09T04:17:25.733Z,1026.34
2022-08-09T04:18:25.715Z,1026.31
2022-08-09T04:19:42.668Z,1026.35
2022-08-09T04:20:26.700Z,1026.30
2022-08-09T04:21:25.687Z,1026.33
2022-08-09T04:22:25.657Z,1026.34
2022-08-09T04:23:26.009Z,1026.35
2022-08-09T04:24:26.844Z,1026.34
2022-08-09T04:25:25.649Z,1026.26
2022-08-09T04:26:37.901Z,1026.34
2022-08-09T04:27:26.596Z,1026.37
2022-08-09T04:28:33.326Z,1026.45
2022-08-09T04:29:26.667Z,1026.35
2022-08-09T04:30:26.182Z,1026.28
2022-08-09T04:31:26.409Z,1026.39
2022-08-09T04:32:31.651Z,1026.39
2022-08-09T04:33:28.641Z,1026.37
2022-08-09T04:34:30.749Z,1026.37
2022-08-09T04:35:26.682Z,1026.35
2022-08-09T04:36:25.690Z,1026.31
2022-08-09T04:37:45.360Z,1026.32
2022-08-09T04:38:26.496Z,1026.43
2022-08-09T04:39:25.478Z,1026.41
2022-08-09T04:40:36.243Z,1026.38
2022-08-09T04:41:32.426Z,1026.40
2022-08-09T04:42:26.406Z,1026.37
2022-08-09T04:43:25.429Z,1026.50
2022-08-09T04:44:25.369Z,1026.47
2022-08-09T04:45:25.379Z,1026.50
2022-08-09T04:46:37.589Z,1026.49
2022-08-09T04:47:26.345Z,1026.48
2022-08-09T04:48:33.481Z,1026.48
2022-08-09T04:49:40.732Z,1026.45
2022-08-09T04:50:35.102Z,1026.45
2022-08-09T04:51:26.325Z,1026.54
2022-08-09T04:52:27.001Z,1026.48
2022-08-09T04:53:26.269Z,1026.51
2022-08-09T04:54:25.941Z,1026.60
2022-08-09T04:55:26.162Z,1026.51
2022-08-09T04:56:26.267Z,1026.58
2022-08-09T04:57:25.392Z,1026.64
2022-08-09T04:58:25.185Z,1026.51
2022-08-09T04:59:25.165Z,1026.59
2022-08-09T05:00:26.200Z,1026.57
2022-08-09T05:01:26.175Z,1026.59
2022-08-09T05:02:27.518Z,1026.62
2022-08-09T05:03:40.412Z,1026.56
2022-08-09T05:04:31.156Z,1026.62
2022-08-09T05:05:31.823Z,1026.59
2022-08-09T05:06:27.911Z,1026.60
2022-08-09T05:07:25.105Z,1026.55
2022-08-09T05:08:25.120Z,1026.61
2022-08-09T05:09:25.127Z,1026.60
2022-08-09T05:10:26.078Z,1026.67
2022-08-09T05:11:25.058Z,1026.62
2022-08-09T05:12:25.993Z,1026.69
2022-08-09T05:13:24.995Z,1026.65
2022-08-09T05:14:26.872Z,1026.65
2022-08-09T05:15:39.287Z,1026.71
2022-08-09T05:16:31.703Z,1026.65
2022-08-09T05:18:37.820Z,1026.61
2022-08-09T05:18:50.675Z,1026.65
2022-08-09T05:19:44.470Z,1026.65
2022-08-09T05:20:25.949Z,1026.68
2022-08-09T05:21:30.507Z,1026.65
2022-08-09T05:22:33.294Z,1026.65
2022-08-09T05:23:57.752Z,1026.72
2022-08-09T05:24:25.941Z,1026.70
2022-08-09T05:25:24.872Z,1026.61
2022-08-09T05:26:32.175Z,1026.64
2022-08-09T05:27:25.843Z,1026.71
2022-08-09T05:28:24.812Z,1026.68
2022-08-09T05:29:31.256Z,1026.65
2022-08-09T05:30:25.771Z,1026.71
2022-08-09T05:31:44.365Z,1026.73
2022-08-09T05:32:25.739Z,1026.66
2022-08-09T05:33:26.446Z,1026.74
2022-08-09T05:34:30.156Z,1026.73
2022-08-09T05:35:25.696Z,1026.66
2022-08-09T05:36:26.418Z,1026.69
2022-08-09T05:37:24.694Z,1026.74
2022-08-09T05:38:24.696Z,1026.73
2022-08-09T05:39:28.862Z,1026.76
2022-08-09T05:40:25.639Z,1026.81
2022-08-09T05:41:24.632Z,1026.71
2022-08-09T05:42:28.148Z,1026.74
2022-08-09T05:43:24.617Z,1026.75
2022-08-09T05:44:29.151Z,1026.70
2022-08-09T05:45:25.565Z,1026.76
2022-08-09T05:46:25.571Z,1026.72
2022-08-09T05:47:24.756Z,1026.75
2022-08-09T05:48:27.829Z,1026.75
2022-08-09T05:50:23.918Z,1026.77
2022-08-09T05:50:44.197Z,1026.76
2022-08-09T05:51:41.672Z,1026.81
2022-08-09T05:52:25.491Z,1026.81
2022-08-09T05:53:33.458Z,1026.90
2022-08-09T05:54:25.445Z,1026.84
2022-08-09T05:55:24.621Z,1026.87
2022-08-09T05:56:25.873Z,1026.89
2022-08-09T05:57:24.994Z,1026.88
2022-08-09T05:58:25.405Z,1026.86
2022-08-09T05:59:24.443Z,1026.94
2022-08-09T06:00:24.398Z,1027.00
2022-08-09T06:01:25.589Z,1026.94
2022-08-09T06:02:25.378Z,1027.05
2022-08-09T06:03:24.432Z,1027.02
2022-08-09T06:04:25.337Z,1027.02
2022-08-09T06:05:50.680Z,1027.01
2022-08-09T06:06:29.183Z,1027.02
2022-08-09T06:07:24.284Z,1027.12
2022-08-09T06:08:25.030Z,1027.12
2022-08-09T06:09:54.445Z,1027.13
2022-08-09T06:10:25.228Z,1027.09
2022-08-09T06:11:40.553Z,1027.08
2022-08-09T06:12:27.593Z,1027.02
2022-08-09T06:13:24.210Z,1027.01
2022-08-09T06:14:24.253Z,1027.03
2022-08-09T06:15:24.913Z,1027.01
2022-08-09T06:16:24.161Z,1027.03
2022-08-09T06:17:24.380Z,1027.03
2022-08-09T06:18:25.198Z,1027.04
2022-08-09T06:19:24.165Z,1027.03
2022-08-09T06:20:24.153Z,1027.07
2022-08-09T06:21:24.153Z,1027.08
2022-08-09T06:22:29.003Z,1027.00
2022-08-09T06:23:57.135Z,1027.03
2022-08-09T06:24:25.086Z,1027.06
2022-08-09T06:25:24.035Z,1027.05
2022-08-09T06:26:28.415Z,1027.01
2022-08-09T06:27:24.031Z,1027.06
2022-08-09T06:28:27.398Z,1027.14
2022-08-09T06:29:26.882Z,1027.00
2022-08-09T06:30:24.042Z,1027.00
2022-08-09T06:31:31.428Z,1026.98
2022-08-09T06:33:00.960Z,1027.01
2022-08-09T06:33:39.737Z,1027.04
2022-08-09T06:34:26.295Z,1027.03
2022-08-09T06:35:55.679Z,1027.03
2022-08-09T06:36:27.067Z,1027.06
2022-08-09T06:37:28.978Z,1027.06
2022-08-09T06:38:32.232Z,1027.07
2022-08-09T06:39:24.941Z,1027.09
2022-08-09T06:40:24.915Z,1027.06
2022-08-09T06:41:23.895Z,1027.07
2022-08-09T06:42:30.836Z,1027.16
2022-08-09T06:43:24.814Z,1027.20
2022-08-09T06:44:23.788Z,1027.25
2022-08-09T06:46:07.908Z,1027.20
2022-08-09T06:46:39.785Z,1027.21
2022-08-09T06:47:24.833Z,1027.27
2022-08-09T06:48:30.489Z,1027.23
2022-08-09T06:49:44.636Z,1027.23
2022-08-09T06:50:24.731Z,1027.29
2022-08-09T06:51:23.725Z,1027.32
2022-08-09T06:52:25.201Z,1027.26
2022-08-09T06:53:23.687Z,1027.25
2022-08-09T06:54:23.732Z,1027.26
2022-08-09T06:55:24.030Z,1027.21
2022-08-09T06:56:30.968Z,1027.26
2022-08-09T06:57:25.785Z,1027.19
2022-08-09T06:58:40.811Z,1027.26
2022-08-09T07:00:49.648Z,1027.29
2022-08-09T07:00:51.426Z,1027.23
2022-08-09T07:01:35.566Z,1027.27
2022-08-09T07:02:30.880Z,1027.29
2022-08-09T07:03:27.775Z,1027.28
2022-08-09T07:04:23.510Z,1027.27
2022-08-09T07:05:23.507Z,1027.26
2022-08-09T07:06:25.535Z,1027.31
2022-08-09T07:07:28.548Z,1027.27
2022-08-09T07:08:24.857Z,1027.27
2022-08-09T07:09:55.370Z,1027.33
2022-08-09T07:10:31.308Z,1027.34
2022-08-09T07:11:25.671Z,1027.28
2022-08-09T07:12:40.725Z,1027.30
2022-08-09T07:13:28.204Z,1027.30
2022-08-09T07:14:26.658Z,1027.27
2022-08-09T07:16:39.377Z,1027.27
2022-08-09T07:16:42.047Z,1027.26
2022-08-09T07:17:24.354Z,1027.25
2022-08-09T07:18:23.383Z,1027.25
2022-08-09T07:19:23.872Z,1027.28
2022-08-09T07:20:23.334Z,1027.28
2022-08-09T07:21:23.331Z,1027.28
2022-08-09T07:22:27.399Z,1027.27
2022-08-09T07:23:24.322Z,1027.30
2022-08-09T07:24:31.876Z,1027.21
2022-08-09T07:25:24.248Z,1027.23
2022-08-09T07:26:23.271Z,1027.23
2022-08-09T07:27:27.282Z,1027.25
2022-08-09T07:28:26.213Z,1027.26
2022-08-09T07:29:23.218Z,1027.21
2022-08-09T07:30:24.364Z,1027.21
2022-08-09T07:31:23.299Z,1027.26
2022-08-09T07:32:23.142Z,1027.22
2022-08-09T07:33:24.321Z,1027.20
2022-08-09T07:34:23.137Z,1027.25
2022-08-09T07:35:23.107Z,1027.28
2022-08-09T07:36:23.112Z,1027.22
2022-08-09T07:37:23.094Z,1027.27
2022-08-09T07:38:23.583Z,1027.27
2022-08-09T07:39:41.278Z,1027.27
2022-08-09T07:40:26.889Z,1027.28
2022-08-09T07:41:24.025Z,1027.30
2022-08-09T07:42:23.021Z,1027.30
2022-08-09T07:43:29.099Z,1027.30
2022-08-09T07:44:24.345Z,1027.30
2022-08-09T07:45:40.361Z,1027.20
2022-08-09T07:46:27.643Z,1027.21
2022-08-09T07:47:25.014Z,1027.27
2022-08-09T07:48:30.456Z,1027.25
2022-08-09T07:49:24.130Z,1027.27
2022-08-09T07:50:34.983Z,1027.26
2022-08-09T07:52:03.169Z,1027.22
2022-08-09T07:52:24.128Z,1027.27
2022-08-09T07:54:01.748Z,1027.27
2022-08-09T07:54:28.005Z,1027.32
2022-08-09T07:55:23.867Z,1027.33
2022-08-09T07:56:27.260Z,1027.26
2022-08-09T07:57:22.825Z,1027.29
2022-08-09T07:58:26.898Z,1027.34
2022-08-09T07:59:33.877Z,1027.32
2022-08-09T08:00:35.801Z,1027.37
2022-08-09T08:01:23.791Z,1027.38
2022-08-09T08:02:23.890Z,1027.39
2022-08-09T08:03:24.159Z,1027.36
2022-08-09T08:04:31.203Z,1027.37
2022-08-09T08:05:23.719Z,1027.30
2022-08-09T08:06:22.730Z,1027.37
2022-08-09T08:08:43.575Z,1027.30
2022-08-09T08:09:00.213Z,1027.32
2022-08-09T08:09:41.192Z,1027.34
2022-08-09T08:10:27.331Z,1027.28
2022-08-09T08:12:10.640Z,1027.36
2022-08-09T08:12:27.909Z,1027.31
2022-08-09T08:13:23.628Z,1027.35
2022-08-09T08:14:24.223Z,1027.31
2022-08-09T08:15:23.025Z,1027.38
2022-08-09T08:16:29.713Z,1027.30
2022-08-09T08:17:35.266Z,1027.26
2022-08-09T08:18:23.540Z,1027.27
2022-08-09T08:19:22.531Z,1027.32
2022-08-09T08:20:28.598Z,1027.28
2022-08-09T08:21:23.496Z,1027.35
2022-08-09T08:22:30.130Z,1027.35
2022-08-09T08:23:25.652Z,1027.34
2022-08-09T08:24:22.454Z,1027.38
2022-08-09T08:25:22.441Z,1027.32
2022-08-09T08:26:26.749Z,1027.30
2022-08-09T08:27:23.411Z,1027.26
2022-08-09T08:28:26.236Z,1027.27
2022-08-09T08:29:28.010Z,1027.31
2022-08-09T08:30:23.401Z,1027.31
2022-08-09T08:31:24.468Z,1027.34
2022-08-09T08:32:28.941Z,1027.35
2022-08-09T08:33:24.548Z,1027.33
2022-08-09T08:34:25.345Z,1027.34
2022-08-09T08:35:22.810Z,1027.34
2022-08-09T08:36:28.493Z,1027.35
2022-08-09T08:37:23.306Z,1027.27
2022-08-09T08:38:22.277Z,1027.25
2022-08-09T08:39:22.367Z,1027.26
2022-08-09T08:40:22.267Z,1027.26
2022-08-09T08:41:22.448Z,1027.29
2022-08-09T08:42:29.515Z,1027.29
2022-08-09T08:43:23.359Z,1027.29
2022-08-09T08:44:27.237Z,1027.29
2022-08-09T08:45:37.162Z,1027.31
2022-08-09T08:46:32.065Z,1027.30
2022-08-09T08:47:23.253Z,1027.34
2022-08-09T08:48:22.133Z,1027.26
2022-08-09T08:49:22.617Z,1027.24
2022-08-09T08:50:23.112Z,1027.29
2022-08-09T08:51:22.610Z,1027.30
2022-08-09T08:52:58.123Z,1027.30
2022-08-09T08:53:23.060Z,1027.33
2022-08-09T08:54:29.708Z,1027.31
2022-08-09T08:55:23.551Z,1027.33
2022-08-09T08:56:28.345Z,1027.32
2022-08-09T08:57:23.029Z,1027.33
2022-08-09T08:58:23.946Z,1027.34
2022-08-09T08:59:22.986Z,1027.33
2022-08-09T09:00:27.526Z,1027.32
2022-08-09T09:01:24.680Z,1027.34
2022-08-09T09:02:31.374Z,1027.26
2022-08-09T09:03:33.175Z,1027.30
2022-08-09T09:04:26.905Z,1027.31
2022-08-09T09:05:33.090Z,1027.28
2022-08-09T09:06:22.952Z,1027.29
2022-08-09T09:07:21.922Z,1027.32
2022-08-09T09:08:30.666Z,1027.39
2022-08-09T09:09:50.260Z,1027.26
2022-08-09T09:10:22.899Z,1027.29
2022-08-09T09:11:21.867Z,1027.21
2022-08-09T09:12:21.907Z,1027.32
2022-08-09T09:13:21.817Z,1027.27
2022-08-09T09:14:21.799Z,1027.27
2022-08-09T09:15:28.070Z,1027.31
2022-08-09T09:16:29.702Z,1027.27
2022-08-09T09:17:23.739Z,1027.27
2022-08-09T09:18:22.755Z,1027.27
2022-08-09T09:19:40.084Z,1027.35
2022-08-09T09:20:22.728Z,1027.26
2022-08-09T09:21:26.201Z,1027.31
2022-08-09T09:22:26.901Z,1027.30
2022-08-09T09:23:22.730Z,1027.31
2022-08-09T09:24:22.670Z,1027.26
2022-08-09T09:26:04.056Z,1027.33
2022-08-09T09:26:22.696Z,1027.30
2022-08-09T09:28:02.898Z,1027.28
2022-08-09T09:28:58.930Z,1027.29
2022-08-09T09:29:22.599Z,1027.32
2022-08-09T09:30:41.078Z,1027.30
2022-08-09T09:32:01.792Z,1027.34
2022-08-09T09:32:35.385Z,1027.35
2022-08-09T09:33:23.794Z,1027.39
2022-08-09T09:34:21.532Z,1027.37
2022-08-09T09:35:21.546Z,1027.35
2022-08-09T09:36:22.231Z,1027.42
2022-08-09T09:37:25.627Z,1027.35
2022-08-09T09:38:36.465Z,1027.31
2022-08-09T09:39:22.613Z,1027.32
2022-08-09T09:40:21.503Z,1027.31
2022-08-09T09:41:21.442Z,1027.32
2022-08-09T09:42:21.566Z,1027.30
2022-08-09T09:43:21.690Z,1027.32
2022-08-09T09:44:25.937Z,1027.31
2022-08-09T09:45:26.223Z,1027.23
2022-08-09T09:47:22.375Z,1027.32
2022-08-09T09:48:21.361Z,1027.37
2022-08-09T09:49:31.863Z,1027.31
2022-08-09T09:50:23.392Z,1027.35
2022-08-09T09:51:26.194Z,1027.33
2022-08-09T09:52:37.313Z,1027.32
2022-08-09T09:53:43.612Z,1027.32
2022-08-09T09:54:22.276Z,1027.31
2022-08-09T09:55:27.942Z,1027.27
2022-08-09T09:56:31.632Z,1027.28
2022-08-09T09:58:02.195Z,1027.31
2022-08-09T09:58:24.435Z,1027.25
2022-08-09T09:59:21.204Z,1027.28
2022-08-09T10:00:22.010Z,1027.35
2022-08-09T10:01:31.204Z,1027.36
2022-08-09T10:02:22.185Z,1027.27
2022-08-09T10:03:21.207Z,1027.33
2022-08-09T10:04:30.451Z,1027.33
2022-08-09T10:05:26.997Z,1027.30
2022-08-09T10:06:23.075Z,1027.35
2022-08-09T10:07:21.104Z,1027.29
2022-08-09T10:08:28.104Z,1027.29
2022-08-09T10:09:23.874Z,1027.28
2022-08-09T10:10:21.068Z,1027.27
2022-08-09T10:12:01.446Z,1027.25
2022-08-09T10:12:28.593Z,1027.22
2022-08-09T10:13:23.233Z,1027.25
2022-08-09T10:14:31.017Z,1027.25
2022-08-09T10:15:51.012Z,1027.26
2022-08-09T10:16:58.139Z,1027.21
2022-08-09T10:17:39.792Z,1027.20
2022-08-09T10:18:21.969Z,1027.18
2022-08-09T10:19:20.949Z,1027.22
2022-08-09T10:20:26.890Z,1027.19
2022-08-09T10:21:21.919Z,1027.20
2022-08-09T10:22:29.459Z,1027.15
2022-08-09T10:23:22.321Z,1027.19
2022-08-09T10:24:25.695Z,1027.25
2022-08-09T10:25:21.878Z,1027.23
2022-08-09T10:26:20.843Z,1027.27
2022-08-09T10:27:28.701Z,1027.23
2022-08-09T10:28:21.848Z,1027.18
2022-08-09T10:29:36.099Z,1027.18
2022-08-09T10:32:38.736Z,1027.18
2022-08-09T10:34:07.911Z,1027.14
2022-08-09T10:34:33.174Z,1027.21
2022-08-09T10:35:21.738Z,1027.19
2022-08-09T10:36:20.733Z,1027.14
2022-08-09T10:37:20.732Z,1027.18
2022-08-09T10:38:34.350Z,1027.15
2022-08-09T10:39:21.730Z,1027.17
2022-08-09T10:40:33.471Z,1027.13
2022-08-09T10:41:21.675Z,1027.06
2022-08-09T10:42:20.649Z,1027.17
2022-08-09T10:43:21.666Z,1027.13
2022-08-09T10:44:21.715Z,1027.06
2022-08-09T10:45:20.617Z,1027.11
2022-08-09T10:46:25.185Z,1027.10
2022-08-09T10:48:16.735Z,1027.06
2022-08-09T10:48:30.075Z,1027.12
2022-08-09T10:49:21.565Z,1027.12
2022-08-09T10:50:27.114Z,1027.07
2022-08-09T10:51:29.844Z,1027.01
2022-08-09T10:52:21.523Z,1027.09
2022-08-09T10:53:21.259Z,1027.03
2022-08-09T10:54:20.500Z,1027.10
2022-08-09T10:55:20.491Z,1027.09
2022-08-09T10:56:22.611Z,1027.09
2022-08-09T10:57:20.438Z,1027.08
2022-08-09T10:58:25.409Z,1027.03
2022-08-09T10:59:21.434Z,1027.11
2022-08-09T11:00:20.446Z,1027.05
2022-08-09T11:03:11.280Z,1027.04
2022-08-09T11:03:13.217Z,1027.04
2022-08-09T11:03:47.022Z,1027.03
2022-08-09T11:04:31.252Z,1026.99
2022-08-09T11:05:24.848Z,1027.05
2022-08-09T11:06:22.940Z,1026.97
2022-08-09T11:07:20.306Z,1026.99
2022-08-09T11:08:30.165Z,1027.03
2022-08-09T11:09:21.274Z,1026.99
2022-08-09T11:10:20.281Z,1027.04
2022-08-09T11:11:21.275Z,1027.01
2022-08-09T11:12:20.354Z,1026.95
2022-08-09T11:13:54.109Z,1026.98
2022-08-09T11:14:28.545Z,1027.05
2022-08-09T11:15:24.083Z,1026.97
2022-08-09T11:16:35.156Z,1026.91
2022-08-09T11:17:21.179Z,1026.96
2022-08-09T11:18:20.190Z,1026.92
2022-08-09T11:19:20.167Z,1026.93
2022-08-09T11:20:22.520Z,1026.91
2022-08-09T11:21:20.131Z,1026.92
2022-08-09T11:22:24.431Z,1026.91
2022-08-09T11:23:24.050Z,1026.89
2022-08-09T11:24:21.100Z,1026.87
2022-08-09T11:25:25.718Z,1026.81
2022-08-09T11:26:21.132Z,1026.84
2022-08-09T11:28:02.644Z,1026.77
2022-08-09T11:28:30.926Z,1026.81
2022-08-09T11:30:06.636Z,1026.79
2022-08-09T11:30:32.068Z,1026.70
2022-08-09T11:31:33.762Z,1026.76
2022-08-09T11:32:21.021Z,1026.65
2022-08-09T11:33:20.216Z,1026.64
2022-08-09T11:34:19.963Z,1026.63
2022-08-09T11:35:23.811Z,1026.62
2022-08-09T11:36:35.561Z,1026.60
2022-08-09T11:37:20.922Z,1026.61
2022-08-09T11:38:22.521Z,1026.59
2022-08-09T11:39:20.935Z,1026.65
2022-08-09T11:40:19.886Z,1026.64
2022-08-09T11:41:19.879Z,1026.67
2022-08-09T11:42:19.936Z,1026.59
2022-08-09T11:43:19.852Z,1026.59
2022-08-09T11:44:19.852Z,1026.59
2022-08-09T11:45:19.826Z,1026.57
2022-08-09T11:46:32.827Z,1026.54
2022-08-09T11:47:20.787Z,1026.59
2022-08-09T11:48:26.632Z,1026.52
2022-08-09T11:49:28.141Z,1026.53
2022-08-09T11:50:53.221Z,1026.55
2022-08-09T11:52:56.779Z,1026.52
2022-08-09T11:53:02.061Z,1026.53
2022-08-09T11:53:57.839Z,1026.49
2022-08-09T11:54:28.596Z,1026.48
2022-08-09T11:55:34.653Z,1026.45
2022-08-09T11:56:20.699Z,1026.43
2022-08-09T11:57:47.098Z,1026.41
2022-08-09T11:58:30.467Z,1026.48
2022-08-09T11:59:20.674Z,1026.40
2022-08-09T12:00:24.183Z,1026.44
2022-08-09T12:02:00.953Z,1026.36
2022-08-09T12:02:37.054Z,1026.37
2022-08-09T12:03:54.824Z,1026.43
2022-08-09T12:04:28.777Z,1026.41
2022-08-09T12:05:22.735Z,1026.39
2022-08-09T12:06:26.744Z,1026.42
2022-08-09T12:07:20.534Z,1026.40
2022-08-09T12:08:21.496Z,1026.36